Adell, Wisconsin
Current Conditions -  °F | °C
As of 3:53 PM on Sunday 23 Nov 2014 (Local Time) from KSBM Reporting Station
Light Rain Light Rain  
Wind Chill: 41°   Ceiling: 300
Heat Index: 45°   Visibility: 1.7mi
Dew Point: 43°   Wind: 8mph
Humidity: 93%   Direction: 170°S
Pressure: 29.47"   Gusts: NA
Location:  43.62°N, 87.95°W
Report Text: KSBM 232153Z AUTO 17007KT 1 3/4SM -RA BR OVC003 07/06 A2947 RMK AO2 SLP982 P0005 T00720061
Loading
Personal Weather Stations






























Interactive Weather Map New forecast layout! Learn more

10-Day Weather Forecast

Advertisements
Track Severe Weather on mobile